RPi & Temperatures at JO21ut

Last graph updates: Monday 24 September 2018 21:02 CEST

Sunrise: 07:25 & Sunset: 19:32 The Sun is currently not visible. [-18.93 degrees] and 150030716 Km from the Earth
Moonrise: 19:45 & Moonset: 6:17 Full Moon The Moon is 396361 Km from the Earth
Find here more details on MARS.

21:31:35 up 68 days, 23:34, 0 users, load average: 1.45, 0.70, 0.49
Current CPU frequency is: 1000 Mhz
Current GPU temperature: 29.862°C
Current inside temperature is 19.6°C with a humidity of 61.1%
Second inside temperature is 19.4°C with a pressure of 1032.65 Hpa (30.26 inHg) and an uncorrected altitude of -160.11 m
ds18b20 now showing 19.3°C

All the sensors I use, DHT22 | BMP085 | MPU6050 | BH1750FVI | MMA7455 | HMC5883L | MPL3115A2 | DS1307 | HTU21 | AM2321 | DS3231 | INA219 | LM75A , and it's current readout can be viewed here please be patient as it needs to read all sensors data. The page loads after about 10 seconds. In our forum more details can be found such as the used software/sources. Feel free to add yours also..


Pressure BMP085
Pressure BMP085
Pressure BMP085
Pressure BMP085
PI CPU Temp
Inet Volkel temp
Inside temp BMP085
Humidity BMP085
PI CPU Temp
Inet Volkel temp
Inside temp BMP085
Humidity BMP085
PI CPU Temp
Inet Volkel temp
Inside temp BMP085
Humidity BMP085
PI CPU Temp
Inet Volkel temp
Inside temp BMP085
Humidity BMP085
PI CPU Temp
Inet Volkel temp
Inside temp BMP085
Humidity BMP085
Inside light BH1750FV
Inside light BH1750FV
Inside light BH1750FV
Inside light BH1750FV
Inside light BH1750FV
Inside light BH1750FV
Sunlight hours
 

Sun & Moon height


Wijchen weather

Weer Widget
ScreenSaver yr.no

Sun Moon Earth


EHEH 241925Z AUTO 26003KT 9999 NCD 07/04 Q1036 BLU 28003KT CAVOK EHEH 241925Z AUTO 26003KT 9999 NCD 07/04 Q1036 BLU 28003KT CAVOK EHEH 241925Z AUTO 26003KT 9999 NCD 07/04 Q1036 BLU 28003KT CAVOK

Weather data from Volkel [NL] EHVK


7 minutes ago, at 19:25 UTC, the wind was blowing at a speed of 1.5 meters per second (3.5 miles per hour/3 knots) from West (280) in Volkel [EHVK], Netherlands. The temperature was 7 °C (45 °F) with a dewpoint of 4 °C (39 °F), and the pressure was 1,036 hPa (30.59 inHg). The relative humidity was 81.2%. There are no clouds below 1,524 meter (5,000 feet). The visibility was >10 kilometers (>6.2 miles).




View code:

Contact me  |  My Raspberry PI forum